South Kearny, New Jersey
Current Conditions -  °F | °C
As of 11:51 AM on Saturday 25 Oct 2014 (Local Time) from KEWR Reporting Station
Few Clouds Few Clouds  
Wind Chill: 17°   Ceiling: Unl
Heat Index: 17°   Visibility: 10mi
Dew Point:   Wind: 10mph
Humidity: 43%   Direction: 250°WSW
Pressure: 29.82"   Gusts: NA
Location:  40.7563°N, 74.1217°W
Report Text: KEWR 251551Z 25009KT 10SM FEW250 17/04 A2982 RMK AO2 SLP098 T01720044
Loading
Personal Weather Stations






























Interactive Weather Map
Tropical Storm Tracking
New forecast layout! Learn more

10-Day Weather Forecast

Advertisements
Track Severe Weather on mobile